Northport, Maine
Current Conditions -  °F | °C
As of 11:15 AM on Wednesday 22 Oct 2014 (Local Time) from KRKD Reporting Station
Overcast Overcast  
Wind Chill: 50°   Ceiling: 3900
Heat Index: 50°   Visibility: 10mi
Dew Point: 48°   Wind: 18mph
Humidity: 94%   Direction: 30°NNE
Pressure: 30.1"   Gusts: 28mph
Location:  44.313°N, 69.0897°W
Report Text: KRKD 221515Z AUTO 03016G24KT 10SM FEW010 OVC039 10/09 A3010 RMK AO1
Loading
Personal Weather Stations






























Interactive Weather Map
Tropical Storm Tracking
New forecast layout! Learn more

10-Day Weather Forecast

Advertisements
Track Severe Weather on mobile